<?xml version="1.0" encoding="UTF-8" standalone="no" ?>
<gpx xmlns="http://www.topografix.com/GPX/1/1" xmlns:xsi="http://www.w3.org/2001/XMLSchema-instance" xsi:schemaLocation="http://www.topografix.com/GPX/1/1 http://www.topografix.com/GPX/1/1/gpx.xsd" version="1.1" creator="VisuGPX - https://www.visugpx.com">
  <metadata>
    <name>Kaiserstuhl 3 on AllTrails</name>
  </metadata>
  <trk>
    <name><![CDATA[Kaiserstuhl 3 on AllTrails]]></name>
    <trkseg>
      <trkpt lat="48.08952" lon="7.63996">
        <ele>216</ele>
        <time>2010-01-01T00:00:00Z</time>
      </trkpt>
      <trkpt lat="48.0895" lon="7.63995">
        <ele>216</ele>
        <time>2010-01-01T00:00:00Z</time>
      </trkpt>
      <trkpt lat="48.08948" lon="7.6401">
        <ele>217</ele>
        <time>2010-01-01T00:00:04Z</time>
      </trkpt>
      <trkpt lat="48.08924" lon="7.64054">
        <ele>219</ele>
        <time>2010-01-01T00:00:20Z</time>
      </trkpt>
      <trkpt lat="48.08922" lon="7.64071">
        <ele>220</ele>
        <time>2010-01-01T00:00:24Z</time>
      </trkpt>
      <trkpt lat="48.08927" lon="7.64107">
        <ele>220</ele>
        <time>2010-01-01T00:00:34Z</time>
      </trkpt>
      <trkpt lat="48.08933" lon="7.64136">
        <ele>220</ele>
        <time>2010-01-01T00:00:42Z</time>
      </trkpt>
      <trkpt lat="48.08946" lon="7.64178">
        <ele>221</ele>
        <time>2010-01-01T00:00:54Z</time>
      </trkpt>
      <trkpt lat="48.08946" lon="7.64186">
        <ele>222</ele>
        <time>2010-01-01T00:00:57Z</time>
      </trkpt>
      <trkpt lat="48.08944" lon="7.64198">
        <ele>223</ele>
        <time>2010-01-01T00:01:00Z</time>
      </trkpt>
      <trkpt lat="48.08938" lon="7.6421">
        <ele>224</ele>
        <time>2010-01-01T00:01:04Z</time>
      </trkpt>
      <trkpt lat="48.08905" lon="7.64245">
        <ele>230</ele>
        <time>2010-01-01T00:01:20Z</time>
      </trkpt>
      <trkpt lat="48.08916" lon="7.64276">
        <ele>229</ele>
        <time>2010-01-01T00:01:30Z</time>
      </trkpt>
      <trkpt lat="48.08912" lon="7.64282">
        <ele>230</ele>
        <time>2010-01-01T00:01:32Z</time>
      </trkpt>
      <trkpt lat="48.0891" lon="7.643">
        <ele>231</ele>
        <time>2010-01-01T00:01:37Z</time>
      </trkpt>
      <trkpt lat="48.08911" lon="7.64307">
        <ele>232</ele>
        <time>2010-01-01T00:01:39Z</time>
      </trkpt>
      <trkpt lat="48.08918" lon="7.64327">
        <ele>232</ele>
        <time>2010-01-01T00:01:45Z</time>
      </trkpt>
      <trkpt lat="48.08941" lon="7.64373">
        <ele>234</ele>
        <time>2010-01-01T00:02:00Z</time>
      </trkpt>
      <trkpt lat="48.0898" lon="7.6443">
        <ele>233</ele>
        <time>2010-01-01T00:02:22Z</time>
      </trkpt>
      <trkpt lat="48.08993" lon="7.64454">
        <ele>233</ele>
        <time>2010-01-01T00:02:30Z</time>
      </trkpt>
      <trkpt lat="48.08996" lon="7.64461">
        <ele>233</ele>
        <time>2010-01-01T00:02:32Z</time>
      </trkpt>
      <trkpt lat="48.08996" lon="7.64466">
        <ele>233</ele>
        <time>2010-01-01T00:02:34Z</time>
      </trkpt>
      <trkpt lat="48.09001" lon="7.64471">
        <ele>233</ele>
        <time>2010-01-01T00:02:36Z</time>
      </trkpt>
      <trkpt lat="48.09001" lon="7.6447">
        <ele>233</ele>
        <time>2010-01-01T00:02:36Z</time>
      </trkpt>
      <trkpt lat="48.08996" lon="7.64466">
        <ele>233</ele>
        <time>2010-01-01T00:02:39Z</time>
      </trkpt>
      <trkpt lat="48.08992" lon="7.64474">
        <ele>234</ele>
        <time>2010-01-01T00:02:41Z</time>
      </trkpt>
      <trkpt lat="48.0894" lon="7.64538">
        <ele>242</ele>
        <time>2010-01-01T00:03:08Z</time>
      </trkpt>
      <trkpt lat="48.08881" lon="7.646">
        <ele>254</ele>
        <time>2010-01-01T00:03:37Z</time>
      </trkpt>
      <trkpt lat="48.08853" lon="7.64642">
        <ele>260</ele>
        <time>2010-01-01T00:03:53Z</time>
      </trkpt>
      <trkpt lat="48.08835" lon="7.64664">
        <ele>264</ele>
        <time>2010-01-01T00:04:02Z</time>
      </trkpt>
      <trkpt lat="48.08825" lon="7.64672">
        <ele>265</ele>
        <time>2010-01-01T00:04:07Z</time>
      </trkpt>
      <trkpt lat="48.08805" lon="7.64683">
        <ele>267</ele>
        <time>2010-01-01T00:04:15Z</time>
      </trkpt>
      <trkpt lat="48.08769" lon="7.64695">
        <ele>271</ele>
        <time>2010-01-01T00:04:30Z</time>
      </trkpt>
      <trkpt lat="48.08759" lon="7.64695">
        <ele>272</ele>
        <time>2010-01-01T00:04:34Z</time>
      </trkpt>
      <trkpt lat="48.0867" lon="7.64675">
        <ele>275</ele>
        <time>2010-01-01T00:05:10Z</time>
      </trkpt>
      <trkpt lat="48.08658" lon="7.64678">
        <ele>276</ele>
        <time>2010-01-01T00:05:15Z</time>
      </trkpt>
      <trkpt lat="48.08644" lon="7.64694">
        <ele>280</ele>
        <time>2010-01-01T00:05:22Z</time>
      </trkpt>
      <trkpt lat="48.0861" lon="7.64722">
        <ele>285</ele>
        <time>2010-01-01T00:05:38Z</time>
      </trkpt>
      <trkpt lat="48.08571" lon="7.64748">
        <ele>292</ele>
        <time>2010-01-01T00:05:55Z</time>
      </trkpt>
      <trkpt lat="48.08542" lon="7.64778">
        <ele>300</ele>
        <time>2010-01-01T00:06:09Z</time>
      </trkpt>
      <trkpt lat="48.08528" lon="7.64795">
        <ele>303</ele>
        <time>2010-01-01T00:06:16Z</time>
      </trkpt>
      <trkpt lat="48.08499" lon="7.64851">
        <ele>311</ele>
        <time>2010-01-01T00:06:35Z</time>
      </trkpt>
      <trkpt lat="48.08483" lon="7.64893">
        <ele>323</ele>
        <time>2010-01-01T00:06:48Z</time>
      </trkpt>
      <trkpt lat="48.08476" lon="7.64899">
        <ele>324</ele>
        <time>2010-01-01T00:06:51Z</time>
      </trkpt>
      <trkpt lat="48.08465" lon="7.64893">
        <ele>327</ele>
        <time>2010-01-01T00:06:56Z</time>
      </trkpt>
      <trkpt lat="48.08458" lon="7.64874">
        <ele>326</ele>
        <time>2010-01-01T00:07:02Z</time>
      </trkpt>
      <trkpt lat="48.08451" lon="7.64835">
        <ele>321</ele>
        <time>2010-01-01T00:07:12Z</time>
      </trkpt>
      <trkpt lat="48.0844" lon="7.64827">
        <ele>326</ele>
        <time>2010-01-01T00:07:17Z</time>
      </trkpt>
      <trkpt lat="48.08423" lon="7.64821">
        <ele>333</ele>
        <time>2010-01-01T00:07:24Z</time>
      </trkpt>
      <trkpt lat="48.08408" lon="7.64808">
        <ele>337</ele>
        <time>2010-01-01T00:07:31Z</time>
      </trkpt>
      <trkpt lat="48.08402" lon="7.64787">
        <ele>338</ele>
        <time>2010-01-01T00:07:37Z</time>
      </trkpt>
      <trkpt lat="48.08405" lon="7.64762">
        <ele>335</ele>
        <time>2010-01-01T00:07:44Z</time>
      </trkpt>
      <trkpt lat="48.08418" lon="7.64711">
        <ele>324</ele>
        <time>2010-01-01T00:07:59Z</time>
      </trkpt>
      <trkpt lat="48.08417" lon="7.64699">
        <ele>322</ele>
        <time>2010-01-01T00:08:02Z</time>
      </trkpt>
      <trkpt lat="48.08413" lon="7.6469">
        <ele>323</ele>
        <time>2010-01-01T00:08:05Z</time>
      </trkpt>
      <trkpt lat="48.08406" lon="7.64686">
        <ele>325</ele>
        <time>2010-01-01T00:08:08Z</time>
      </trkpt>
      <trkpt lat="48.08399" lon="7.64685">
        <ele>328</ele>
        <time>2010-01-01T00:08:11Z</time>
      </trkpt>
      <trkpt lat="48.0838" lon="7.64692">
        <ele>333</ele>
        <time>2010-01-01T00:08:18Z</time>
      </trkpt>
      <trkpt lat="48.0836" lon="7.64685">
        <ele>333</ele>
        <time>2010-01-01T00:08:27Z</time>
      </trkpt>
      <trkpt lat="48.08333" lon="7.64681">
        <ele>332</ele>
        <time>2010-01-01T00:08:38Z</time>
      </trkpt>
      <trkpt lat="48.08301" lon="7.64692">
        <ele>327</ele>
        <time>2010-01-01T00:08:51Z</time>
      </trkpt>
      <trkpt lat="48.08289" lon="7.6472">
        <ele>328</ele>
        <time>2010-01-01T00:09:00Z</time>
      </trkpt>
      <trkpt lat="48.08239" lon="7.64811">
        <ele>329</ele>
        <time>2010-01-01T00:09:31Z</time>
      </trkpt>
      <trkpt lat="48.08234" lon="7.64826">
        <ele>330</ele>
        <time>2010-01-01T00:09:36Z</time>
      </trkpt>
      <trkpt lat="48.08228" lon="7.64856">
        <ele>334</ele>
        <time>2010-01-01T00:09:44Z</time>
      </trkpt>
      <trkpt lat="48.08216" lon="7.6489">
        <ele>338</ele>
        <time>2010-01-01T00:09:54Z</time>
      </trkpt>
      <trkpt lat="48.082" lon="7.64923">
        <ele>341</ele>
        <time>2010-01-01T00:10:05Z</time>
      </trkpt>
      <trkpt lat="48.0819" lon="7.64931">
        <ele>341</ele>
        <time>2010-01-01T00:10:10Z</time>
      </trkpt>
      <trkpt lat="48.08181" lon="7.64934">
        <ele>342</ele>
        <time>2010-01-01T00:10:13Z</time>
      </trkpt>
      <trkpt lat="48.08164" lon="7.64931">
        <ele>341</ele>
        <time>2010-01-01T00:10:20Z</time>
      </trkpt>
      <trkpt lat="48.08163" lon="7.64931">
        <ele>341</ele>
        <time>2010-01-01T00:10:21Z</time>
      </trkpt>
      <trkpt lat="48.08144" lon="7.64924">
        <ele>343</ele>
        <time>2010-01-01T00:10:28Z</time>
      </trkpt>
      <trkpt lat="48.0812" lon="7.64912">
        <ele>342</ele>
        <time>2010-01-01T00:10:39Z</time>
      </trkpt>
      <trkpt lat="48.08108" lon="7.64909">
        <ele>343</ele>
        <time>2010-01-01T00:10:43Z</time>
      </trkpt>
      <trkpt lat="48.08081" lon="7.6491">
        <ele>343</ele>
        <time>2010-01-01T00:10:54Z</time>
      </trkpt>
      <trkpt lat="48.0807" lon="7.64913">
        <ele>343</ele>
        <time>2010-01-01T00:10:59Z</time>
      </trkpt>
      <trkpt lat="48.08053" lon="7.64924">
        <ele>344</ele>
        <time>2010-01-01T00:11:06Z</time>
      </trkpt>
      <trkpt lat="48.08041" lon="7.64937">
        <ele>345</ele>
        <time>2010-01-01T00:11:12Z</time>
      </trkpt>
      <trkpt lat="48.08029" lon="7.64953">
        <ele>347</ele>
        <time>2010-01-01T00:11:18Z</time>
      </trkpt>
      <trkpt lat="48.08003" lon="7.64997">
        <ele>349</ele>
        <time>2010-01-01T00:11:34Z</time>
      </trkpt>
      <trkpt lat="48.08001" lon="7.65004">
        <ele>349</ele>
        <time>2010-01-01T00:11:36Z</time>
      </trkpt>
      <trkpt lat="48.08" lon="7.65016">
        <ele>350</ele>
        <time>2010-01-01T00:11:39Z</time>
      </trkpt>
      <trkpt lat="48.08012" lon="7.65089">
        <ele>345</ele>
        <time>2010-01-01T00:12:00Z</time>
      </trkpt>
      <trkpt lat="48.0801" lon="7.6509">
        <ele>345</ele>
        <time>2010-01-01T00:12:00Z</time>
      </trkpt>
      <trkpt lat="48.08009" lon="7.65089">
        <ele>345</ele>
        <time>2010-01-01T00:12:01Z</time>
      </trkpt>
      <trkpt lat="48.08003" lon="7.6506">
        <ele>348</ele>
        <time>2010-01-01T00:12:09Z</time>
      </trkpt>
      <trkpt lat="48.08" lon="7.65054">
        <ele>349</ele>
        <time>2010-01-01T00:12:11Z</time>
      </trkpt>
      <trkpt lat="48.07993" lon="7.65049">
        <ele>348</ele>
        <time>2010-01-01T00:12:14Z</time>
      </trkpt>
      <trkpt lat="48.07959" lon="7.65051">
        <ele>339</ele>
        <time>2010-01-01T00:12:28Z</time>
      </trkpt>
      <trkpt lat="48.07924" lon="7.65041">
        <ele>331</ele>
        <time>2010-01-01T00:12:42Z</time>
      </trkpt>
      <trkpt lat="48.07876" lon="7.65015">
        <ele>323</ele>
        <time>2010-01-01T00:13:02Z</time>
      </trkpt>
      <trkpt lat="48.07873" lon="7.65016">
        <ele>323</ele>
        <time>2010-01-01T00:13:04Z</time>
      </trkpt>
      <trkpt lat="48.07868" lon="7.65024">
        <ele>322</ele>
        <time>2010-01-01T00:13:07Z</time>
      </trkpt>
      <trkpt lat="48.07861" lon="7.65047">
        <ele>320</ele>
        <time>2010-01-01T00:13:13Z</time>
      </trkpt>
      <trkpt lat="48.07844" lon="7.65089">
        <ele>317</ele>
        <time>2010-01-01T00:13:27Z</time>
      </trkpt>
      <trkpt lat="48.07839" lon="7.65095">
        <ele>315</ele>
        <time>2010-01-01T00:13:29Z</time>
      </trkpt>
      <trkpt lat="48.0783" lon="7.65101">
        <ele>313</ele>
        <time>2010-01-01T00:13:33Z</time>
      </trkpt>
      <trkpt lat="48.07822" lon="7.651">
        <ele>310</ele>
        <time>2010-01-01T00:13:36Z</time>
      </trkpt>
      <trkpt lat="48.07794" lon="7.65092">
        <ele>302</ele>
        <time>2010-01-01T00:13:48Z</time>
      </trkpt>
      <trkpt lat="48.07783" lon="7.65087">
        <ele>298</ele>
        <time>2010-01-01T00:13:52Z</time>
      </trkpt>
      <trkpt lat="48.07778" lon="7.65081">
        <ele>297</ele>
        <time>2010-01-01T00:13:55Z</time>
      </trkpt>
      <trkpt lat="48.07775" lon="7.65073">
        <ele>297</ele>
        <time>2010-01-01T00:13:57Z</time>
      </trkpt>
      <trkpt lat="48.07771" lon="7.65039">
        <ele>296</ele>
        <time>2010-01-01T00:14:06Z</time>
      </trkpt>
      <trkpt lat="48.07764" lon="7.65039">
        <ele>294</ele>
        <time>2010-01-01T00:14:09Z</time>
      </trkpt>
      <trkpt lat="48.07761" lon="7.65042">
        <ele>293</ele>
        <time>2010-01-01T00:14:11Z</time>
      </trkpt>
      <trkpt lat="48.07757" lon="7.65054">
        <ele>292</ele>
        <time>2010-01-01T00:14:14Z</time>
      </trkpt>
      <trkpt lat="48.07752" lon="7.65088">
        <ele>290</ele>
        <time>2010-01-01T00:14:24Z</time>
      </trkpt>
      <trkpt lat="48.07747" lon="7.65104">
        <ele>288</ele>
        <time>2010-01-01T00:14:28Z</time>
      </trkpt>
      <trkpt lat="48.07745" lon="7.65105">
        <ele>287</ele>
        <time>2010-01-01T00:14:29Z</time>
      </trkpt>
      <trkpt lat="48.07737" lon="7.65093">
        <ele>287</ele>
        <time>2010-01-01T00:14:34Z</time>
      </trkpt>
      <trkpt lat="48.07731" lon="7.65077">
        <ele>286</ele>
        <time>2010-01-01T00:14:39Z</time>
      </trkpt>
      <trkpt lat="48.0773" lon="7.65068">
        <ele>286</ele>
        <time>2010-01-01T00:14:41Z</time>
      </trkpt>
      <trkpt lat="48.0773" lon="7.65067">
        <ele>286</ele>
        <time>2010-01-01T00:14:41Z</time>
      </trkpt>
      <trkpt lat="48.07727" lon="7.65051">
        <ele>285</ele>
        <time>2010-01-01T00:14:46Z</time>
      </trkpt>
      <trkpt lat="48.07727" lon="7.65032">
        <ele>285</ele>
        <time>2010-01-01T00:14:51Z</time>
      </trkpt>
      <trkpt lat="48.07737" lon="7.64963">
        <ele>281</ele>
        <time>2010-01-01T00:15:10Z</time>
      </trkpt>
      <trkpt lat="48.07749" lon="7.64907">
        <ele>279</ele>
        <time>2010-01-01T00:15:25Z</time>
      </trkpt>
      <trkpt lat="48.07773" lon="7.64821">
        <ele>276</ele>
        <time>2010-01-01T00:15:50Z</time>
      </trkpt>
      <trkpt lat="48.07777" lon="7.64786">
        <ele>272</ele>
        <time>2010-01-01T00:16:00Z</time>
      </trkpt>
      <trkpt lat="48.07776" lon="7.64773">
        <ele>270</ele>
        <time>2010-01-01T00:16:03Z</time>
      </trkpt>
      <trkpt lat="48.07773" lon="7.64748">
        <ele>268</ele>
        <time>2010-01-01T00:16:10Z</time>
      </trkpt>
      <trkpt lat="48.07766" lon="7.64715">
        <ele>264</ele>
        <time>2010-01-01T00:16:19Z</time>
      </trkpt>
      <trkpt lat="48.07772" lon="7.64694">
        <ele>263</ele>
        <time>2010-01-01T00:16:26Z</time>
      </trkpt>
      <trkpt lat="48.07781" lon="7.64676">
        <ele>263</ele>
        <time>2010-01-01T00:16:32Z</time>
      </trkpt>
      <trkpt lat="48.07803" lon="7.64643">
        <ele>262</ele>
        <time>2010-01-01T00:16:44Z</time>
      </trkpt>
      <trkpt lat="48.07786" lon="7.64588">
        <ele>263</ele>
        <time>2010-01-01T00:17:00Z</time>
      </trkpt>
      <trkpt lat="48.07794" lon="7.64576">
        <ele>262</ele>
        <time>2010-01-01T00:17:05Z</time>
      </trkpt>
      <trkpt lat="48.078" lon="7.64563">
        <ele>262</ele>
        <time>2010-01-01T00:17:09Z</time>
      </trkpt>
      <trkpt lat="48.078" lon="7.64559">
        <ele>262</ele>
        <time>2010-01-01T00:17:10Z</time>
      </trkpt>
      <trkpt lat="48.07775" lon="7.64508">
        <ele>262</ele>
        <time>2010-01-01T00:17:27Z</time>
      </trkpt>
      <trkpt lat="48.07757" lon="7.64479">
        <ele>265</ele>
        <time>2010-01-01T00:17:38Z</time>
      </trkpt>
      <trkpt lat="48.07707" lon="7.64438">
        <ele>272</ele>
        <time>2010-01-01T00:18:00Z</time>
      </trkpt>
      <trkpt lat="48.07638" lon="7.64354">
        <ele>288</ele>
        <time>2010-01-01T00:18:36Z</time>
      </trkpt>
      <trkpt lat="48.07601" lon="7.64305">
        <ele>293</ele>
        <time>2010-01-01T00:18:56Z</time>
      </trkpt>
      <trkpt lat="48.07597" lon="7.64296">
        <ele>295</ele>
        <time>2010-01-01T00:18:59Z</time>
      </trkpt>
      <trkpt lat="48.07585" lon="7.64259">
        <ele>305</ele>
        <time>2010-01-01T00:19:10Z</time>
      </trkpt>
      <trkpt lat="48.07565" lon="7.6421">
        <ele>315</ele>
        <time>2010-01-01T00:19:25Z</time>
      </trkpt>
      <trkpt lat="48.0756" lon="7.64201">
        <ele>316</ele>
        <time>2010-01-01T00:19:28Z</time>
      </trkpt>
      <trkpt lat="48.07551" lon="7.6419">
        <ele>317</ele>
        <time>2010-01-01T00:19:33Z</time>
      </trkpt>
      <trkpt lat="48.07552" lon="7.64189">
        <ele>316</ele>
        <time>2010-01-01T00:19:33Z</time>
      </trkpt>
      <trkpt lat="48.07544" lon="7.64188">
        <ele>317</ele>
        <time>2010-01-01T00:19:37Z</time>
      </trkpt>
      <trkpt lat="48.0741" lon="7.64202">
        <ele>337</ele>
        <time>2010-01-01T00:20:30Z</time>
      </trkpt>
      <trkpt lat="48.07389" lon="7.64212">
        <ele>339</ele>
        <time>2010-01-01T00:20:39Z</time>
      </trkpt>
      <trkpt lat="48.07378" lon="7.64225">
        <ele>338</ele>
        <time>2010-01-01T00:20:45Z</time>
      </trkpt>
      <trkpt lat="48.07365" lon="7.64247">
        <ele>336</ele>
        <time>2010-01-01T00:20:53Z</time>
      </trkpt>
      <trkpt lat="48.07362" lon="7.64259">
        <ele>336</ele>
        <time>2010-01-01T00:20:56Z</time>
      </trkpt>
      <trkpt lat="48.0736" lon="7.64271">
        <ele>336</ele>
        <time>2010-01-01T00:20:59Z</time>
      </trkpt>
      <trkpt lat="48.07366" lon="7.64274">
        <ele>335</ele>
        <time>2010-01-01T00:21:02Z</time>
      </trkpt>
      <trkpt lat="48.07368" lon="7.64283">
        <ele>335</ele>
        <time>2010-01-01T00:21:04Z</time>
      </trkpt>
      <trkpt lat="48.07361" lon="7.64323">
        <ele>339</ele>
        <time>2010-01-01T00:21:15Z</time>
      </trkpt>
      <trkpt lat="48.0735" lon="7.64324">
        <ele>339</ele>
        <time>2010-01-01T00:21:20Z</time>
      </trkpt>
      <trkpt lat="48.0732" lon="7.64344">
        <ele>339</ele>
        <time>2010-01-01T00:21:33Z</time>
      </trkpt>
      <trkpt lat="48.07302" lon="7.64367">
        <ele>340</ele>
        <time>2010-01-01T00:21:42Z</time>
      </trkpt>
      <trkpt lat="48.07289" lon="7.64392">
        <ele>340</ele>
        <time>2010-01-01T00:21:51Z</time>
      </trkpt>
      <trkpt lat="48.0728" lon="7.64396">
        <ele>337</ele>
        <time>2010-01-01T00:21:55Z</time>
      </trkpt>
      <trkpt lat="48.07289" lon="7.64392">
        <ele>340</ele>
        <time>2010-01-01T00:21:58Z</time>
      </trkpt>
      <trkpt lat="48.07285" lon="7.64405">
        <ele>340</ele>
        <time>2010-01-01T00:22:02Z</time>
      </trkpt>
      <trkpt lat="48.07289" lon="7.64427">
        <ele>343</ele>
        <time>2010-01-01T00:22:08Z</time>
      </trkpt>
      <trkpt lat="48.07296" lon="7.64442">
        <ele>345</ele>
        <time>2010-01-01T00:22:13Z</time>
      </trkpt>
      <trkpt lat="48.073" lon="7.64459">
        <ele>346</ele>
        <time>2010-01-01T00:22:18Z</time>
      </trkpt>
      <trkpt lat="48.07299" lon="7.64547">
        <ele>348</ele>
        <time>2010-01-01T00:22:42Z</time>
      </trkpt>
      <trkpt lat="48.07292" lon="7.64584">
        <ele>349</ele>
        <time>2010-01-01T00:22:52Z</time>
      </trkpt>
      <trkpt lat="48.07288" lon="7.646">
        <ele>350</ele>
        <time>2010-01-01T00:22:57Z</time>
      </trkpt>
      <trkpt lat="48.07282" lon="7.64613">
        <ele>350</ele>
        <time>2010-01-01T00:23:01Z</time>
      </trkpt>
      <trkpt lat="48.07264" lon="7.64633">
        <ele>349</ele>
        <time>2010-01-01T00:23:10Z</time>
      </trkpt>
      <trkpt lat="48.07237" lon="7.64655">
        <ele>347</ele>
        <time>2010-01-01T00:23:22Z</time>
      </trkpt>
      <trkpt lat="48.07233" lon="7.64663">
        <ele>348</ele>
        <time>2010-01-01T00:23:25Z</time>
      </trkpt>
      <trkpt lat="48.07232" lon="7.64672">
        <ele>349</ele>
        <time>2010-01-01T00:23:27Z</time>
      </trkpt>
      <trkpt lat="48.07243" lon="7.64727">
        <ele>352</ele>
        <time>2010-01-01T00:23:42Z</time>
      </trkpt>
      <trkpt lat="48.0725" lon="7.64771">
        <ele>352</ele>
        <time>2010-01-01T00:23:55Z</time>
      </trkpt>
      <trkpt lat="48.07246" lon="7.64771">
        <ele>352</ele>
        <time>2010-01-01T00:23:56Z</time>
      </trkpt>
      <trkpt lat="48.07238" lon="7.64733">
        <ele>351</ele>
        <time>2010-01-01T00:24:07Z</time>
      </trkpt>
      <trkpt lat="48.07229" lon="7.6468">
        <ele>349</ele>
        <time>2010-01-01T00:24:21Z</time>
      </trkpt>
      <trkpt lat="48.07227" lon="7.64658">
        <ele>347</ele>
        <time>2010-01-01T00:24:27Z</time>
      </trkpt>
      <trkpt lat="48.07227" lon="7.64657">
        <ele>346</ele>
        <time>2010-01-01T00:24:28Z</time>
      </trkpt>
      <trkpt lat="48.07228" lon="7.64659">
        <ele>347</ele>
        <time>2010-01-01T00:24:28Z</time>
      </trkpt>
      <trkpt lat="48.07229" lon="7.6468">
        <ele>349</ele>
        <time>2010-01-01T00:24:34Z</time>
      </trkpt>
      <trkpt lat="48.07238" lon="7.64733">
        <ele>351</ele>
        <time>2010-01-01T00:24:49Z</time>
      </trkpt>
      <trkpt lat="48.07246" lon="7.64771">
        <ele>352</ele>
        <time>2010-01-01T00:24:59Z</time>
      </trkpt>
      <trkpt lat="48.0725" lon="7.64771">
        <ele>352</ele>
        <time>2010-01-01T00:25:01Z</time>
      </trkpt>
      <trkpt lat="48.07254" lon="7.64796">
        <ele>351</ele>
        <time>2010-01-01T00:25:08Z</time>
      </trkpt>
      <trkpt lat="48.07273" lon="7.64874">
        <ele>349</ele>
        <time>2010-01-01T00:25:30Z</time>
      </trkpt>
      <trkpt lat="48.07271" lon="7.6488">
        <ele>349</ele>
        <time>2010-01-01T00:25:32Z</time>
      </trkpt>
      <trkpt lat="48.07238" lon="7.64979">
        <ele>355</ele>
        <time>2010-01-01T00:26:01Z</time>
      </trkpt>
      <trkpt lat="48.07234" lon="7.64985">
        <ele>355</ele>
        <time>2010-01-01T00:26:04Z</time>
      </trkpt>
      <trkpt lat="48.07222" lon="7.64999">
        <ele>357</ele>
        <time>2010-01-01T00:26:10Z</time>
      </trkpt>
      <trkpt lat="48.072" lon="7.65017">
        <ele>358</ele>
        <time>2010-01-01T00:26:20Z</time>
      </trkpt>
      <trkpt lat="48.07186" lon="7.65033">
        <ele>359</ele>
        <time>2010-01-01T00:26:27Z</time>
      </trkpt>
      <trkpt lat="48.07174" lon="7.65051">
        <ele>362</ele>
        <time>2010-01-01T00:26:34Z</time>
      </trkpt>
      <trkpt lat="48.07166" lon="7.65055">
        <ele>363</ele>
        <time>2010-01-01T00:26:37Z</time>
      </trkpt>
      <trkpt lat="48.07174" lon="7.65051">
        <ele>362</ele>
        <time>2010-01-01T00:26:40Z</time>
      </trkpt>
      <trkpt lat="48.07179" lon="7.65043">
        <ele>361</ele>
        <time>2010-01-01T00:26:43Z</time>
      </trkpt>
      <trkpt lat="48.07171" lon="7.65042">
        <ele>362</ele>
        <time>2010-01-01T00:26:46Z</time>
      </trkpt>
      <trkpt lat="48.07078" lon="7.6499">
        <ele>357</ele>
        <time>2010-01-01T00:27:26Z</time>
      </trkpt>
      <trkpt lat="48.07045" lon="7.64977">
        <ele>356</ele>
        <time>2010-01-01T00:27:40Z</time>
      </trkpt>
      <trkpt lat="48.07018" lon="7.64965">
        <ele>356</ele>
        <time>2010-01-01T00:27:51Z</time>
      </trkpt>
      <trkpt lat="48.06982" lon="7.64943">
        <ele>357</ele>
        <time>2010-01-01T00:28:07Z</time>
      </trkpt>
      <trkpt lat="48.0696" lon="7.64946">
        <ele>360</ele>
        <time>2010-01-01T00:28:16Z</time>
      </trkpt>
      <trkpt lat="48.0695" lon="7.64944">
        <ele>361</ele>
        <time>2010-01-01T00:28:20Z</time>
      </trkpt>
      <trkpt lat="48.06949" lon="7.64944">
        <ele>361</ele>
        <time>2010-01-01T00:28:20Z</time>
      </trkpt>
      <trkpt lat="48.06942" lon="7.64934">
        <ele>360</ele>
        <time>2010-01-01T00:28:24Z</time>
      </trkpt>
      <trkpt lat="48.06932" lon="7.64903">
        <ele>358</ele>
        <time>2010-01-01T00:28:33Z</time>
      </trkpt>
      <trkpt lat="48.06925" lon="7.64891">
        <ele>358</ele>
        <time>2010-01-01T00:28:37Z</time>
      </trkpt>
      <trkpt lat="48.06917" lon="7.64887">
        <ele>358</ele>
        <time>2010-01-01T00:28:41Z</time>
      </trkpt>
      <trkpt lat="48.06887" lon="7.64885">
        <ele>360</ele>
        <time>2010-01-01T00:28:53Z</time>
      </trkpt>
      <trkpt lat="48.0687" lon="7.6488">
        <ele>360</ele>
        <time>2010-01-01T00:29:00Z</time>
      </trkpt>
      <trkpt lat="48.06855" lon="7.64862">
        <ele>360</ele>
        <time>2010-01-01T00:29:07Z</time>
      </trkpt>
      <trkpt lat="48.06839" lon="7.64837">
        <ele>361</ele>
        <time>2010-01-01T00:29:17Z</time>
      </trkpt>
      <trkpt lat="48.06831" lon="7.6481">
        <ele>361</ele>
        <time>2010-01-01T00:29:25Z</time>
      </trkpt>
      <trkpt lat="48.06823" lon="7.64732">
        <ele>359</ele>
        <time>2010-01-01T00:29:46Z</time>
      </trkpt>
      <trkpt lat="48.0682" lon="7.64719">
        <ele>359</ele>
        <time>2010-01-01T00:29:49Z</time>
      </trkpt>
      <trkpt lat="48.0681" lon="7.647">
        <ele>361</ele>
        <time>2010-01-01T00:29:56Z</time>
      </trkpt>
      <trkpt lat="48.06799" lon="7.64682">
        <ele>362</ele>
        <time>2010-01-01T00:30:02Z</time>
      </trkpt>
      <trkpt lat="48.06767" lon="7.64644">
        <ele>367</ele>
        <time>2010-01-01T00:30:19Z</time>
      </trkpt>
      <trkpt lat="48.06717" lon="7.6461">
        <ele>365</ele>
        <time>2010-01-01T00:30:41Z</time>
      </trkpt>
      <trkpt lat="48.06689" lon="7.64605">
        <ele>363</ele>
        <time>2010-01-01T00:30:52Z</time>
      </trkpt>
      <trkpt lat="48.06663" lon="7.64605">
        <ele>360</ele>
        <time>2010-01-01T00:31:02Z</time>
      </trkpt>
      <trkpt lat="48.0658" lon="7.64595">
        <ele>352</ele>
        <time>2010-01-01T00:31:36Z</time>
      </trkpt>
      <trkpt lat="48.06511" lon="7.64595">
        <ele>356</ele>
        <time>2010-01-01T00:32:03Z</time>
      </trkpt>
      <trkpt lat="48.06483" lon="7.64606">
        <ele>359</ele>
        <time>2010-01-01T00:32:15Z</time>
      </trkpt>
      <trkpt lat="48.06462" lon="7.64617">
        <ele>361</ele>
        <time>2010-01-01T00:32:24Z</time>
      </trkpt>
      <trkpt lat="48.06415" lon="7.64653">
        <ele>362</ele>
        <time>2010-01-01T00:32:45Z</time>
      </trkpt>
      <trkpt lat="48.06404" lon="7.64658">
        <ele>363</ele>
        <time>2010-01-01T00:32:50Z</time>
      </trkpt>
      <trkpt lat="48.06397" lon="7.64659">
        <ele>362</ele>
        <time>2010-01-01T00:32:52Z</time>
      </trkpt>
      <trkpt lat="48.06377" lon="7.64656">
        <ele>363</ele>
        <time>2010-01-01T00:33:00Z</time>
      </trkpt>
      <trkpt lat="48.06353" lon="7.64648">
        <ele>363</ele>
        <time>2010-01-01T00:33:10Z</time>
      </trkpt>
      <trkpt lat="48.06352" lon="7.64648">
        <ele>363</ele>
        <time>2010-01-01T00:33:11Z</time>
      </trkpt>
      <trkpt lat="48.06348" lon="7.64647">
        <ele>364</ele>
        <time>2010-01-01T00:33:12Z</time>
      </trkpt>
      <trkpt lat="48.06339" lon="7.64655">
        <ele>364</ele>
        <time>2010-01-01T00:33:16Z</time>
      </trkpt>
      <trkpt lat="48.06326" lon="7.64673">
        <ele>363</ele>
        <time>2010-01-01T00:33:24Z</time>
      </trkpt>
      <trkpt lat="48.06319" lon="7.64701">
        <ele>362</ele>
        <time>2010-01-01T00:33:32Z</time>
      </trkpt>
      <trkpt lat="48.06317" lon="7.64723">
        <ele>362</ele>
        <time>2010-01-01T00:33:37Z</time>
      </trkpt>
      <trkpt lat="48.06318" lon="7.64754">
        <ele>361</ele>
        <time>2010-01-01T00:33:46Z</time>
      </trkpt>
      <trkpt lat="48.06318" lon="7.64763">
        <ele>361</ele>
        <time>2010-01-01T00:33:48Z</time>
      </trkpt>
      <trkpt lat="48.06306" lon="7.64786">
        <ele>360</ele>
        <time>2010-01-01T00:33:56Z</time>
      </trkpt>
      <trkpt lat="48.06288" lon="7.64766">
        <ele>357</ele>
        <time>2010-01-01T00:34:05Z</time>
      </trkpt>
      <trkpt lat="48.06244" lon="7.64704">
        <ele>343</ele>
        <time>2010-01-01T00:34:29Z</time>
      </trkpt>
      <trkpt lat="48.06195" lon="7.64706">
        <ele>338</ele>
        <time>2010-01-01T00:34:49Z</time>
      </trkpt>
      <trkpt lat="48.06168" lon="7.64705">
        <ele>338</ele>
        <time>2010-01-01T00:35:00Z</time>
      </trkpt>
      <trkpt lat="48.06123" lon="7.64677">
        <ele>336</ele>
        <time>2010-01-01T00:35:19Z</time>
      </trkpt>
      <trkpt lat="48.06095" lon="7.64687">
        <ele>337</ele>
        <time>2010-01-01T00:35:31Z</time>
      </trkpt>
      <trkpt lat="48.06065" lon="7.64704">
        <ele>339</ele>
        <time>2010-01-01T00:35:43Z</time>
      </trkpt>
      <trkpt lat="48.06038" lon="7.64722">
        <ele>340</ele>
        <time>2010-01-01T00:35:55Z</time>
      </trkpt>
      <trkpt lat="48.06023" lon="7.64728">
        <ele>340</ele>
        <time>2010-01-01T00:36:02Z</time>
      </trkpt>
      <trkpt lat="48.06015" lon="7.64726">
        <ele>340</ele>
        <time>2010-01-01T00:36:05Z</time>
      </trkpt>
      <trkpt lat="48.06006" lon="7.6472">
        <ele>340</ele>
        <time>2010-01-01T00:36:09Z</time>
      </trkpt>
      <trkpt lat="48.05993" lon="7.64706">
        <ele>338</ele>
        <time>2010-01-01T00:36:15Z</time>
      </trkpt>
      <trkpt lat="48.05979" lon="7.64698">
        <ele>339</ele>
        <time>2010-01-01T00:36:21Z</time>
      </trkpt>
      <trkpt lat="48.05972" lon="7.647">
        <ele>340</ele>
        <time>2010-01-01T00:36:24Z</time>
      </trkpt>
      <trkpt lat="48.05962" lon="7.64709">
        <ele>341</ele>
        <time>2010-01-01T00:36:29Z</time>
      </trkpt>
      <trkpt lat="48.05946" lon="7.64732">
        <ele>342</ele>
        <time>2010-01-01T00:36:38Z</time>
      </trkpt>
      <trkpt lat="48.05943" lon="7.64741">
        <ele>341</ele>
        <time>2010-01-01T00:36:40Z</time>
      </trkpt>
      <trkpt lat="48.05941" lon="7.64741">
        <ele>341</ele>
        <time>2010-01-01T00:36:41Z</time>
      </trkpt>
      <trkpt lat="48.05943" lon="7.64741">
        <ele>341</ele>
        <time>2010-01-01T00:36:42Z</time>
      </trkpt>
      <trkpt lat="48.05944" lon="7.64754">
        <ele>341</ele>
        <time>2010-01-01T00:36:45Z</time>
      </trkpt>
      <trkpt lat="48.05973" lon="7.64844">
        <ele>345</ele>
        <time>2010-01-01T00:37:12Z</time>
      </trkpt>
      <trkpt lat="48.05985" lon="7.64871">
        <ele>345</ele>
        <time>2010-01-01T00:37:21Z</time>
      </trkpt>
      <trkpt lat="48.05993" lon="7.64888">
        <ele>345</ele>
        <time>2010-01-01T00:37:26Z</time>
      </trkpt>
      <trkpt lat="48.06012" lon="7.6491">
        <ele>349</ele>
        <time>2010-01-01T00:37:36Z</time>
      </trkpt>
      <trkpt lat="48.06042" lon="7.64935">
        <ele>353</ele>
        <time>2010-01-01T00:37:50Z</time>
      </trkpt>
      <trkpt lat="48.06058" lon="7.64952">
        <ele>354</ele>
        <time>2010-01-01T00:37:58Z</time>
      </trkpt>
      <trkpt lat="48.06059" lon="7.64964">
        <ele>353</ele>
        <time>2010-01-01T00:38:01Z</time>
      </trkpt>
      <trkpt lat="48.06055" lon="7.64997">
        <ele>350</ele>
        <time>2010-01-01T00:38:10Z</time>
      </trkpt>
      <trkpt lat="48.0605" lon="7.65014">
        <ele>350</ele>
        <time>2010-01-01T00:38:15Z</time>
      </trkpt>
      <trkpt lat="48.06044" lon="7.65029">
        <ele>350</ele>
        <time>2010-01-01T00:38:19Z</time>
      </trkpt>
      <trkpt lat="48.0604" lon="7.65034">
        <ele>349</ele>
        <time>2010-01-01T00:38:21Z</time>
      </trkpt>
      <trkpt lat="48.05995" lon="7.65035">
        <ele>341</ele>
        <time>2010-01-01T00:38:39Z</time>
      </trkpt>
      <trkpt lat="48.05972" lon="7.65024">
        <ele>338</ele>
        <time>2010-01-01T00:38:49Z</time>
      </trkpt>
      <trkpt lat="48.0593" lon="7.64976">
        <ele>325</ele>
        <time>2010-01-01T00:39:10Z</time>
      </trkpt>
      <trkpt lat="48.05909" lon="7.64957">
        <ele>323</ele>
        <time>2010-01-01T00:39:20Z</time>
      </trkpt>
      <trkpt lat="48.05884" lon="7.64942">
        <ele>322</ele>
        <time>2010-01-01T00:39:31Z</time>
      </trkpt>
      <trkpt lat="48.05877" lon="7.64931">
        <ele>322</ele>
        <time>2010-01-01T00:39:35Z</time>
      </trkpt>
      <trkpt lat="48.05874" lon="7.64916">
        <ele>321</ele>
        <time>2010-01-01T00:39:39Z</time>
      </trkpt>
      <trkpt lat="48.05868" lon="7.64915">
        <ele>322</ele>
        <time>2010-01-01T00:39:42Z</time>
      </trkpt>
      <trkpt lat="48.05846" lon="7.64942">
        <ele>326</ele>
        <time>2010-01-01T00:39:53Z</time>
      </trkpt>
      <trkpt lat="48.05836" lon="7.64957">
        <ele>327</ele>
        <time>2010-01-01T00:39:59Z</time>
      </trkpt>
      <trkpt lat="48.05823" lon="7.64999">
        <ele>331</ele>
        <time>2010-01-01T00:40:11Z</time>
      </trkpt>
      <trkpt lat="48.05805" lon="7.65005">
        <ele>334</ele>
        <time>2010-01-01T00:40:18Z</time>
      </trkpt>
      <trkpt lat="48.05789" lon="7.65019">
        <ele>334</ele>
        <time>2010-01-01T00:40:26Z</time>
      </trkpt>
      <trkpt lat="48.05752" lon="7.65044">
        <ele>334</ele>
        <time>2010-01-01T00:40:42Z</time>
      </trkpt>
      <trkpt lat="48.05729" lon="7.65071">
        <ele>337</ele>
        <time>2010-01-01T00:40:54Z</time>
      </trkpt>
      <trkpt lat="48.05722" lon="7.65075">
        <ele>337</ele>
        <time>2010-01-01T00:40:57Z</time>
      </trkpt>
      <trkpt lat="48.05701" lon="7.65076">
        <ele>335</ele>
        <time>2010-01-01T00:41:05Z</time>
      </trkpt>
      <trkpt lat="48.05695" lon="7.65058">
        <ele>333</ele>
        <time>2010-01-01T00:41:11Z</time>
      </trkpt>
      <trkpt lat="48.05692" lon="7.65052">
        <ele>332</ele>
        <time>2010-01-01T00:41:13Z</time>
      </trkpt>
      <trkpt lat="48.05663" lon="7.65031">
        <ele>326</ele>
        <time>2010-01-01T00:41:25Z</time>
      </trkpt>
      <trkpt lat="48.0562" lon="7.65007">
        <ele>318</ele>
        <time>2010-01-01T00:41:44Z</time>
      </trkpt>
      <trkpt lat="48.05614" lon="7.65007">
        <ele>317</ele>
        <time>2010-01-01T00:41:46Z</time>
      </trkpt>
      <trkpt lat="48.05663" lon="7.65119">
        <ele>334</ele>
        <time>2010-01-01T00:42:22Z</time>
      </trkpt>
      <trkpt lat="48.05675" lon="7.6514">
        <ele>338</ele>
        <time>2010-01-01T00:42:29Z</time>
      </trkpt>
      <trkpt lat="48.05656" lon="7.65173">
        <ele>333</ele>
        <time>2010-01-01T00:42:41Z</time>
      </trkpt>
      <trkpt lat="48.05701" lon="7.6521">
        <ele>339</ele>
        <time>2010-01-01T00:43:02Z</time>
      </trkpt>
      <trkpt lat="48.05724" lon="7.65238">
        <ele>340</ele>
        <time>2010-01-01T00:43:14Z</time>
      </trkpt>
      <trkpt lat="48.0573" lon="7.65248">
        <ele>340</ele>
        <time>2010-01-01T00:43:17Z</time>
      </trkpt>
      <trkpt lat="48.05731" lon="7.65259">
        <ele>340</ele>
        <time>2010-01-01T00:43:20Z</time>
      </trkpt>
      <trkpt lat="48.05718" lon="7.65295">
        <ele>339</ele>
        <time>2010-01-01T00:43:31Z</time>
      </trkpt>
      <trkpt lat="48.05692" lon="7.65329">
        <ele>340</ele>
        <time>2010-01-01T00:43:45Z</time>
      </trkpt>
      <trkpt lat="48.0568" lon="7.65343">
        <ele>341</ele>
        <time>2010-01-01T00:43:51Z</time>
      </trkpt>
      <trkpt lat="48.05673" lon="7.65347">
        <ele>341</ele>
        <time>2010-01-01T00:43:54Z</time>
      </trkpt>
      <trkpt lat="48.05617" lon="7.65341">
        <ele>328</ele>
        <time>2010-01-01T00:44:16Z</time>
      </trkpt>
      <trkpt lat="48.05568" lon="7.6533">
        <ele>327</ele>
        <time>2010-01-01T00:44:36Z</time>
      </trkpt>
      <trkpt lat="48.05532" lon="7.65326">
        <ele>325</ele>
        <time>2010-01-01T00:44:51Z</time>
      </trkpt>
      <trkpt lat="48.05502" lon="7.65315">
        <ele>323</ele>
        <time>2010-01-01T00:45:03Z</time>
      </trkpt>
      <trkpt lat="48.05481" lon="7.65314">
        <ele>325</ele>
        <time>2010-01-01T00:45:11Z</time>
      </trkpt>
      <trkpt lat="48.05471" lon="7.65309">
        <ele>326</ele>
        <time>2010-01-01T00:45:16Z</time>
      </trkpt>
      <trkpt lat="48.05463" lon="7.65301">
        <ele>326</ele>
        <time>2010-01-01T00:45:20Z</time>
      </trkpt>
      <trkpt lat="48.05443" lon="7.65276">
        <ele>326</ele>
        <time>2010-01-01T00:45:30Z</time>
      </trkpt>
      <trkpt lat="48.05451" lon="7.65313">
        <ele>330</ele>
        <time>2010-01-01T00:45:40Z</time>
      </trkpt>
      <trkpt lat="48.05451" lon="7.65312">
        <ele>330</ele>
        <time>2010-01-01T00:45:41Z</time>
      </trkpt>
      <trkpt lat="48.05462" lon="7.65352">
        <ele>336</ele>
        <time>2010-01-01T00:45:52Z</time>
      </trkpt>
      <trkpt lat="48.0547" lon="7.65398">
        <ele>346</ele>
        <time>2010-01-01T00:46:05Z</time>
      </trkpt>
      <trkpt lat="48.05454" lon="7.65416">
        <ele>348</ele>
        <time>2010-01-01T00:46:13Z</time>
      </trkpt>
      <trkpt lat="48.05451" lon="7.65424">
        <ele>349</ele>
        <time>2010-01-01T00:46:15Z</time>
      </trkpt>
      <trkpt lat="48.05447" lon="7.65453">
        <ele>352</ele>
        <time>2010-01-01T00:46:23Z</time>
      </trkpt>
      <trkpt lat="48.05446" lon="7.65477">
        <ele>354</ele>
        <time>2010-01-01T00:46:30Z</time>
      </trkpt>
      <trkpt lat="48.05461" lon="7.65535">
        <ele>352</ele>
        <time>2010-01-01T00:46:46Z</time>
      </trkpt>
      <trkpt lat="48.0546" lon="7.65535">
        <ele>352</ele>
        <time>2010-01-01T00:46:47Z</time>
      </trkpt>
      <trkpt lat="48.05455" lon="7.65511">
        <ele>353</ele>
        <time>2010-01-01T00:46:54Z</time>
      </trkpt>
      <trkpt lat="48.05462" lon="7.65507">
        <ele>353</ele>
        <time>2010-01-01T00:46:57Z</time>
      </trkpt>
      <trkpt lat="48.05472" lon="7.65506">
        <ele>353</ele>
        <time>2010-01-01T00:47:01Z</time>
      </trkpt>
      <trkpt lat="48.05506" lon="7.65515">
        <ele>357</ele>
        <time>2010-01-01T00:47:14Z</time>
      </trkpt>
      <trkpt lat="48.05512" lon="7.65512">
        <ele>358</ele>
        <time>2010-01-01T00:47:17Z</time>
      </trkpt>
      <trkpt lat="48.05518" lon="7.65499">
        <ele>360</ele>
        <time>2010-01-01T00:47:21Z</time>
      </trkpt>
      <trkpt lat="48.05547" lon="7.65507">
        <ele>363</ele>
        <time>2010-01-01T00:47:33Z</time>
      </trkpt>
      <trkpt lat="48.05577" lon="7.65522">
        <ele>365</ele>
        <time>2010-01-01T00:47:46Z</time>
      </trkpt>
      <trkpt lat="48.05578" lon="7.65527">
        <ele>366</ele>
        <time>2010-01-01T00:47:47Z</time>
      </trkpt>
      <trkpt lat="48.05576" lon="7.65539">
        <ele>365</ele>
        <time>2010-01-01T00:47:50Z</time>
      </trkpt>
      <trkpt lat="48.05578" lon="7.65549">
        <ele>365</ele>
        <time>2010-01-01T00:47:53Z</time>
      </trkpt>
      <trkpt lat="48.05586" lon="7.65553">
        <ele>367</ele>
        <time>2010-01-01T00:47:56Z</time>
      </trkpt>
      <trkpt lat="48.05598" lon="7.65552">
        <ele>371</ele>
        <time>2010-01-01T00:48:01Z</time>
      </trkpt>
      <trkpt lat="48.05616" lon="7.6556">
        <ele>375</ele>
        <time>2010-01-01T00:48:09Z</time>
      </trkpt>
      <trkpt lat="48.0564" lon="7.65554">
        <ele>380</ele>
        <time>2010-01-01T00:48:19Z</time>
      </trkpt>
      <trkpt lat="48.05676" lon="7.6554">
        <ele>382</ele>
        <time>2010-01-01T00:48:33Z</time>
      </trkpt>
      <trkpt lat="48.0572" lon="7.65536">
        <ele>382</ele>
        <time>2010-01-01T00:48:51Z</time>
      </trkpt>
      <trkpt lat="48.0582" lon="7.65509">
        <ele>392</ele>
        <time>2010-01-01T00:49:32Z</time>
      </trkpt>
      <trkpt lat="48.05946" lon="7.65513">
        <ele>422</ele>
        <time>2010-01-01T00:50:22Z</time>
      </trkpt>
      <trkpt lat="48.06017" lon="7.65475">
        <ele>435</ele>
        <time>2010-01-01T00:50:52Z</time>
      </trkpt>
      <trkpt lat="48.06085" lon="7.65472">
        <ele>443</ele>
        <time>2010-01-01T00:51:20Z</time>
      </trkpt>
      <trkpt lat="48.06147" lon="7.65454">
        <ele>444</ele>
        <time>2010-01-01T00:51:45Z</time>
      </trkpt>
      <trkpt lat="48.06211" lon="7.65461">
        <ele>452</ele>
        <time>2010-01-01T00:52:11Z</time>
      </trkpt>
      <trkpt lat="48.06278" lon="7.65471">
        <ele>459</ele>
        <time>2010-01-01T00:52:38Z</time>
      </trkpt>
      <trkpt lat="48.06296" lon="7.65483">
        <ele>460</ele>
        <time>2010-01-01T00:52:45Z</time>
      </trkpt>
      <trkpt lat="48.06337" lon="7.65493">
        <ele>458</ele>
        <time>2010-01-01T00:53:02Z</time>
      </trkpt>
      <trkpt lat="48.06354" lon="7.65495">
        <ele>457</ele>
        <time>2010-01-01T00:53:09Z</time>
      </trkpt>
      <trkpt lat="48.0638" lon="7.6549">
        <ele>459</ele>
        <time>2010-01-01T00:53:19Z</time>
      </trkpt>
      <trkpt lat="48.06462" lon="7.65463">
        <ele>468</ele>
        <time>2010-01-01T00:53:53Z</time>
      </trkpt>
      <trkpt lat="48.06474" lon="7.65464">
        <ele>467</ele>
        <time>2010-01-01T00:53:58Z</time>
      </trkpt>
      <trkpt lat="48.06529" lon="7.65489">
        <ele>463</ele>
        <time>2010-01-01T00:54:21Z</time>
      </trkpt>
      <trkpt lat="48.06567" lon="7.6549">
        <ele>464</ele>
        <time>2010-01-01T00:54:36Z</time>
      </trkpt>
      <trkpt lat="48.06608" lon="7.65497">
        <ele>464</ele>
        <time>2010-01-01T00:54:53Z</time>
      </trkpt>
      <trkpt lat="48.06679" lon="7.65492">
        <ele>466</ele>
        <time>2010-01-01T00:55:21Z</time>
      </trkpt>
      <trkpt lat="48.06707" lon="7.65496">
        <ele>468</ele>
        <time>2010-01-01T00:55:32Z</time>
      </trkpt>
      <trkpt lat="48.0672" lon="7.65503">
        <ele>468</ele>
        <time>2010-01-01T00:55:38Z</time>
      </trkpt>
      <trkpt lat="48.06719" lon="7.65503">
        <ele>468</ele>
        <time>2010-01-01T00:55:38Z</time>
      </trkpt>
      <trkpt lat="48.06722" lon="7.65505">
        <ele>468</ele>
        <time>2010-01-01T00:55:40Z</time>
      </trkpt>
      <trkpt lat="48.06745" lon="7.65535">
        <ele>467</ele>
        <time>2010-01-01T00:55:52Z</time>
      </trkpt>
      <trkpt lat="48.06772" lon="7.65618">
        <ele>465</ele>
        <time>2010-01-01T00:56:16Z</time>
      </trkpt>
      <trkpt lat="48.06779" lon="7.65776">
        <ele>462</ele>
        <time>2010-01-01T00:56:59Z</time>
      </trkpt>
      <trkpt lat="48.06782" lon="7.65785">
        <ele>463</ele>
        <time>2010-01-01T00:57:01Z</time>
      </trkpt>
      <trkpt lat="48.06793" lon="7.6581">
        <ele>464</ele>
        <time>2010-01-01T00:57:09Z</time>
      </trkpt>
      <trkpt lat="48.06862" lon="7.65895">
        <ele>459</ele>
        <time>2010-01-01T00:57:45Z</time>
      </trkpt>
      <trkpt lat="48.06909" lon="7.65926">
        <ele>462</ele>
        <time>2010-01-01T00:58:06Z</time>
      </trkpt>
      <trkpt lat="48.06954" lon="7.65952">
        <ele>456</ele>
        <time>2010-01-01T00:58:25Z</time>
      </trkpt>
      <trkpt lat="48.06981" lon="7.65983">
        <ele>455</ele>
        <time>2010-01-01T00:58:39Z</time>
      </trkpt>
      <trkpt lat="48.07005" lon="7.66018">
        <ele>452</ele>
        <time>2010-01-01T00:58:52Z</time>
      </trkpt>
      <trkpt lat="48.07028" lon="7.66072">
        <ele>442</ele>
        <time>2010-01-01T00:59:09Z</time>
      </trkpt>
      <trkpt lat="48.07062" lon="7.66142">
        <ele>442</ele>
        <time>2010-01-01T00:59:32Z</time>
      </trkpt>
      <trkpt lat="48.07082" lon="7.66173">
        <ele>440</ele>
        <time>2010-01-01T00:59:44Z</time>
      </trkpt>
      <trkpt lat="48.07144" lon="7.66248">
        <ele>436</ele>
        <time>2010-01-01T01:00:16Z</time>
      </trkpt>
      <trkpt lat="48.0717" lon="7.66273">
        <ele>436</ele>
        <time>2010-01-01T01:00:28Z</time>
      </trkpt>
      <trkpt lat="48.07223" lon="7.66318">
        <ele>431</ele>
        <time>2010-01-01T01:00:53Z</time>
      </trkpt>
      <trkpt lat="48.07255" lon="7.6634">
        <ele>431</ele>
        <time>2010-01-01T01:01:07Z</time>
      </trkpt>
      <trkpt lat="48.07356" lon="7.6638">
        <ele>449</ele>
        <time>2010-01-01T01:01:49Z</time>
      </trkpt>
      <trkpt lat="48.07485" lon="7.66415">
        <ele>476</ele>
        <time>2010-01-01T01:02:41Z</time>
      </trkpt>
      <trkpt lat="48.07497" lon="7.6642">
        <ele>479</ele>
        <time>2010-01-01T01:02:46Z</time>
      </trkpt>
      <trkpt lat="48.07509" lon="7.66427">
        <ele>481</ele>
        <time>2010-01-01T01:02:51Z</time>
      </trkpt>
      <trkpt lat="48.07529" lon="7.66453">
        <ele>484</ele>
        <time>2010-01-01T01:03:02Z</time>
      </trkpt>
      <trkpt lat="48.07593" lon="7.66527">
        <ele>481</ele>
        <time>2010-01-01T01:03:34Z</time>
      </trkpt>
      <trkpt lat="48.07605" lon="7.66543">
        <ele>479</ele>
        <time>2010-01-01T01:03:41Z</time>
      </trkpt>
      <trkpt lat="48.07648" lon="7.66648">
        <ele>472</ele>
        <time>2010-01-01T01:04:14Z</time>
      </trkpt>
      <trkpt lat="48.07715" lon="7.66782">
        <ele>484</ele>
        <time>2010-01-01T01:04:58Z</time>
      </trkpt>
      <trkpt lat="48.07732" lon="7.66801">
        <ele>486</ele>
        <time>2010-01-01T01:05:07Z</time>
      </trkpt>
      <trkpt lat="48.07761" lon="7.6682">
        <ele>482</ele>
        <time>2010-01-01T01:05:19Z</time>
      </trkpt>
      <trkpt lat="48.07769" lon="7.66829">
        <ele>480</ele>
        <time>2010-01-01T01:05:23Z</time>
      </trkpt>
      <trkpt lat="48.07789" lon="7.66844">
        <ele>478</ele>
        <time>2010-01-01T01:05:32Z</time>
      </trkpt>
      <trkpt lat="48.07847" lon="7.66906">
        <ele>487</ele>
        <time>2010-01-01T01:06:01Z</time>
      </trkpt>
      <trkpt lat="48.0785" lon="7.66906">
        <ele>487</ele>
        <time>2010-01-01T01:06:02Z</time>
      </trkpt>
      <trkpt lat="48.07849" lon="7.66906">
        <ele>487</ele>
        <time>2010-01-01T01:06:03Z</time>
      </trkpt>
      <trkpt lat="48.07847" lon="7.66906">
        <ele>487</ele>
        <time>2010-01-01T01:06:03Z</time>
      </trkpt>
      <trkpt lat="48.07866" lon="7.6693">
        <ele>490</ele>
        <time>2010-01-01T01:06:13Z</time>
      </trkpt>
      <trkpt lat="48.07887" lon="7.66952">
        <ele>493</ele>
        <time>2010-01-01T01:06:24Z</time>
      </trkpt>
      <trkpt lat="48.07903" lon="7.66964">
        <ele>497</ele>
        <time>2010-01-01T01:06:31Z</time>
      </trkpt>
      <trkpt lat="48.07922" lon="7.66973">
        <ele>501</ele>
        <time>2010-01-01T01:06:39Z</time>
      </trkpt>
      <trkpt lat="48.07961" lon="7.66976">
        <ele>510</ele>
        <time>2010-01-01T01:06:54Z</time>
      </trkpt>
      <trkpt lat="48.08028" lon="7.66999">
        <ele>533</ele>
        <time>2010-01-01T01:07:22Z</time>
      </trkpt>
      <trkpt lat="48.08051" lon="7.67014">
        <ele>542</ele>
        <time>2010-01-01T01:07:32Z</time>
      </trkpt>
      <trkpt lat="48.08085" lon="7.67066">
        <ele>548</ele>
        <time>2010-01-01T01:07:51Z</time>
      </trkpt>
      <trkpt lat="48.08108" lon="7.6712">
        <ele>548</ele>
        <time>2010-01-01T01:08:08Z</time>
      </trkpt>
      <trkpt lat="48.08109" lon="7.67128">
        <ele>548</ele>
        <time>2010-01-01T01:08:11Z</time>
      </trkpt>
      <trkpt lat="48.08109" lon="7.67127">
        <ele>548</ele>
        <time>2010-01-01T01:08:11Z</time>
      </trkpt>
      <trkpt lat="48.08108" lon="7.6712">
        <ele>548</ele>
        <time>2010-01-01T01:08:13Z</time>
      </trkpt>
      <trkpt lat="48.08133" lon="7.67095">
        <ele>551</ele>
        <time>2010-01-01T01:08:25Z</time>
      </trkpt>
      <trkpt lat="48.08204" lon="7.66997">
        <ele>539</ele>
        <time>2010-01-01T01:09:04Z</time>
      </trkpt>
      <trkpt lat="48.08224" lon="7.66996">
        <ele>533</ele>
        <time>2010-01-01T01:09:12Z</time>
      </trkpt>
      <trkpt lat="48.08236" lon="7.66988">
        <ele>529</ele>
        <time>2010-01-01T01:09:17Z</time>
      </trkpt>
      <trkpt lat="48.0824" lon="7.66978">
        <ele>527</ele>
        <time>2010-01-01T01:09:20Z</time>
      </trkpt>
      <trkpt lat="48.08259" lon="7.66963">
        <ele>521</ele>
        <time>2010-01-01T01:09:29Z</time>
      </trkpt>
      <trkpt lat="48.08275" lon="7.66943">
        <ele>520</ele>
        <time>2010-01-01T01:09:37Z</time>
      </trkpt>
      <trkpt lat="48.08275" lon="7.66915">
        <ele>517</ele>
        <time>2010-01-01T01:09:44Z</time>
      </trkpt>
      <trkpt lat="48.08282" lon="7.66872">
        <ele>507</ele>
        <time>2010-01-01T01:09:56Z</time>
      </trkpt>
      <trkpt lat="48.08252" lon="7.66869">
        <ele>504</ele>
        <time>2010-01-01T01:10:08Z</time>
      </trkpt>
      <trkpt lat="48.0827" lon="7.66828">
        <ele>494</ele>
        <time>2010-01-01T01:10:21Z</time>
      </trkpt>
      <trkpt lat="48.08247" lon="7.66832">
        <ele>496</ele>
        <time>2010-01-01T01:10:31Z</time>
      </trkpt>
      <trkpt lat="48.08239" lon="7.66827">
        <ele>495</ele>
        <time>2010-01-01T01:10:34Z</time>
      </trkpt>
      <trkpt lat="48.08256" lon="7.66792">
        <ele>483</ele>
        <time>2010-01-01T01:10:46Z</time>
      </trkpt>
      <trkpt lat="48.08285" lon="7.66776">
        <ele>477</ele>
        <time>2010-01-01T01:10:58Z</time>
      </trkpt>
      <trkpt lat="48.08296" lon="7.66762">
        <ele>473</ele>
        <time>2010-01-01T01:11:04Z</time>
      </trkpt>
      <trkpt lat="48.08355" lon="7.66712">
        <ele>451</ele>
        <time>2010-01-01T01:11:31Z</time>
      </trkpt>
      <trkpt lat="48.08377" lon="7.66712">
        <ele>454</ele>
        <time>2010-01-01T01:11:40Z</time>
      </trkpt>
      <trkpt lat="48.08388" lon="7.66699">
        <ele>451</ele>
        <time>2010-01-01T01:11:45Z</time>
      </trkpt>
      <trkpt lat="48.08396" lon="7.66679">
        <ele>445</ele>
        <time>2010-01-01T01:11:52Z</time>
      </trkpt>
      <trkpt lat="48.08416" lon="7.66654">
        <ele>440</ele>
        <time>2010-01-01T01:12:02Z</time>
      </trkpt>
      <trkpt lat="48.08455" lon="7.66623">
        <ele>436</ele>
        <time>2010-01-01T01:12:20Z</time>
      </trkpt>
      <trkpt lat="48.08461" lon="7.66587">
        <ele>426</ele>
        <time>2010-01-01T01:12:30Z</time>
      </trkpt>
      <trkpt lat="48.08469" lon="7.66566">
        <ele>423</ele>
        <time>2010-01-01T01:12:36Z</time>
      </trkpt>
      <trkpt lat="48.08478" lon="7.66548">
        <ele>420</ele>
        <time>2010-01-01T01:12:42Z</time>
      </trkpt>
      <trkpt lat="48.085" lon="7.66523">
        <ele>417</ele>
        <time>2010-01-01T01:12:53Z</time>
      </trkpt>
      <trkpt lat="48.08522" lon="7.6651">
        <ele>416</ele>
        <time>2010-01-01T01:13:03Z</time>
      </trkpt>
      <trkpt lat="48.0855" lon="7.66517">
        <ele>419</ele>
        <time>2010-01-01T01:13:14Z</time>
      </trkpt>
      <trkpt lat="48.08566" lon="7.66529">
        <ele>421</ele>
        <time>2010-01-01T01:13:21Z</time>
      </trkpt>
      <trkpt lat="48.08567" lon="7.66532">
        <ele>421</ele>
        <time>2010-01-01T01:13:22Z</time>
      </trkpt>
      <trkpt lat="48.08567" lon="7.66531">
        <ele>421</ele>
        <time>2010-01-01T01:13:22Z</time>
      </trkpt>
      <trkpt lat="48.08566" lon="7.66524">
        <ele>420</ele>
        <time>2010-01-01T01:13:24Z</time>
      </trkpt>
      <trkpt lat="48.08544" lon="7.66469">
        <ele>413</ele>
        <time>2010-01-01T01:13:41Z</time>
      </trkpt>
      <trkpt lat="48.08539" lon="7.66427">
        <ele>403</ele>
        <time>2010-01-01T01:13:53Z</time>
      </trkpt>
      <trkpt lat="48.08524" lon="7.66401">
        <ele>396</ele>
        <time>2010-01-01T01:14:02Z</time>
      </trkpt>
      <trkpt lat="48.08509" lon="7.66354">
        <ele>382</ele>
        <time>2010-01-01T01:14:16Z</time>
      </trkpt>
      <trkpt lat="48.08513" lon="7.66321">
        <ele>377</ele>
        <time>2010-01-01T01:14:25Z</time>
      </trkpt>
      <trkpt lat="48.08525" lon="7.66265">
        <ele>370</ele>
        <time>2010-01-01T01:14:41Z</time>
      </trkpt>
      <trkpt lat="48.08556" lon="7.66196">
        <ele>366</ele>
        <time>2010-01-01T01:15:03Z</time>
      </trkpt>
      <trkpt lat="48.08549" lon="7.66151">
        <ele>368</ele>
        <time>2010-01-01T01:15:15Z</time>
      </trkpt>
      <trkpt lat="48.08511" lon="7.66053">
        <ele>364</ele>
        <time>2010-01-01T01:15:45Z</time>
      </trkpt>
      <trkpt lat="48.08517" lon="7.66001">
        <ele>361</ele>
        <time>2010-01-01T01:16:00Z</time>
      </trkpt>
      <trkpt lat="48.0853" lon="7.65949">
        <ele>356</ele>
        <time>2010-01-01T01:16:14Z</time>
      </trkpt>
      <trkpt lat="48.08545" lon="7.65864">
        <ele>350</ele>
        <time>2010-01-01T01:16:38Z</time>
      </trkpt>
      <trkpt lat="48.08582" lon="7.6581">
        <ele>339</ele>
        <time>2010-01-01T01:16:59Z</time>
      </trkpt>
      <trkpt lat="48.08648" lon="7.65636">
        <ele>324</ele>
        <time>2010-01-01T01:17:52Z</time>
      </trkpt>
      <trkpt lat="48.08683" lon="7.65509">
        <ele>317</ele>
        <time>2010-01-01T01:18:29Z</time>
      </trkpt>
      <trkpt lat="48.08708" lon="7.65422">
        <ele>314</ele>
        <time>2010-01-01T01:18:54Z</time>
      </trkpt>
      <trkpt lat="48.08743" lon="7.6531">
        <ele>297</ele>
        <time>2010-01-01T01:19:27Z</time>
      </trkpt>
      <trkpt lat="48.08751" lon="7.65274">
        <ele>294</ele>
        <time>2010-01-01T01:19:37Z</time>
      </trkpt>
      <trkpt lat="48.08757" lon="7.65216">
        <ele>291</ele>
        <time>2010-01-01T01:19:53Z</time>
      </trkpt>
      <trkpt lat="48.0876" lon="7.65145">
        <ele>285</ele>
        <time>2010-01-01T01:20:12Z</time>
      </trkpt>
      <trkpt lat="48.08764" lon="7.65123">
        <ele>284</ele>
        <time>2010-01-01T01:20:18Z</time>
      </trkpt>
      <trkpt lat="48.08818" lon="7.64974">
        <ele>281</ele>
        <time>2010-01-01T01:21:04Z</time>
      </trkpt>
      <trkpt lat="48.0882" lon="7.64962">
        <ele>280</ele>
        <time>2010-01-01T01:21:07Z</time>
      </trkpt>
      <trkpt lat="48.0882" lon="7.64948">
        <ele>280</ele>
        <time>2010-01-01T01:21:11Z</time>
      </trkpt>
      <trkpt lat="48.08774" lon="7.64729">
        <ele>273</ele>
        <time>2010-01-01T01:22:12Z</time>
      </trkpt>
      <trkpt lat="48.08774" lon="7.64728">
        <ele>272</ele>
        <time>2010-01-01T01:22:12Z</time>
      </trkpt>
      <trkpt lat="48.0877" lon="7.6471">
        <ele>272</ele>
        <time>2010-01-01T01:22:17Z</time>
      </trkpt>
      <trkpt lat="48.08769" lon="7.64695">
        <ele>271</ele>
        <time>2010-01-01T01:22:21Z</time>
      </trkpt>
      <trkpt lat="48.08805" lon="7.64683">
        <ele>267</ele>
        <time>2010-01-01T01:22:36Z</time>
      </trkpt>
      <trkpt lat="48.08825" lon="7.64672">
        <ele>265</ele>
        <time>2010-01-01T01:22:45Z</time>
      </trkpt>
      <trkpt lat="48.08835" lon="7.64664">
        <ele>264</ele>
        <time>2010-01-01T01:22:49Z</time>
      </trkpt>
      <trkpt lat="48.08853" lon="7.64642">
        <ele>260</ele>
        <time>2010-01-01T01:22:58Z</time>
      </trkpt>
      <trkpt lat="48.08881" lon="7.646">
        <ele>254</ele>
        <time>2010-01-01T01:23:14Z</time>
      </trkpt>
      <trkpt lat="48.0894" lon="7.64538">
        <ele>242</ele>
        <time>2010-01-01T01:23:43Z</time>
      </trkpt>
      <trkpt lat="48.08992" lon="7.64474">
        <ele>234</ele>
        <time>2010-01-01T01:24:10Z</time>
      </trkpt>
      <trkpt lat="48.08996" lon="7.64466">
        <ele>233</ele>
        <time>2010-01-01T01:24:13Z</time>
      </trkpt>
      <trkpt lat="48.08996" lon="7.64461">
        <ele>233</ele>
        <time>2010-01-01T01:24:14Z</time>
      </trkpt>
      <trkpt lat="48.08993" lon="7.64454">
        <ele>233</ele>
        <time>2010-01-01T01:24:16Z</time>
      </trkpt>
      <trkpt lat="48.0898" lon="7.6443">
        <ele>233</ele>
        <time>2010-01-01T01:24:25Z</time>
      </trkpt>
      <trkpt lat="48.08941" lon="7.64373">
        <ele>234</ele>
        <time>2010-01-01T01:24:46Z</time>
      </trkpt>
      <trkpt lat="48.08918" lon="7.64327">
        <ele>232</ele>
        <time>2010-01-01T01:25:02Z</time>
      </trkpt>
      <trkpt lat="48.08911" lon="7.64307">
        <ele>232</ele>
        <time>2010-01-01T01:25:08Z</time>
      </trkpt>
      <trkpt lat="48.0891" lon="7.643">
        <ele>231</ele>
        <time>2010-01-01T01:25:10Z</time>
      </trkpt>
      <trkpt lat="48.08912" lon="7.64282">
        <ele>230</ele>
        <time>2010-01-01T01:25:15Z</time>
      </trkpt>
      <trkpt lat="48.08916" lon="7.64276">
        <ele>229</ele>
        <time>2010-01-01T01:25:17Z</time>
      </trkpt>
      <trkpt lat="48.08905" lon="7.64245">
        <ele>230</ele>
        <time>2010-01-01T01:25:26Z</time>
      </trkpt>
      <trkpt lat="48.08938" lon="7.6421">
        <ele>224</ele>
        <time>2010-01-01T01:25:43Z</time>
      </trkpt>
      <trkpt lat="48.08944" lon="7.64198">
        <ele>223</ele>
        <time>2010-01-01T01:25:47Z</time>
      </trkpt>
      <trkpt lat="48.08946" lon="7.64186">
        <ele>222</ele>
        <time>2010-01-01T01:25:50Z</time>
      </trkpt>
      <trkpt lat="48.08946" lon="7.64178">
        <ele>221</ele>
        <time>2010-01-01T01:25:52Z</time>
      </trkpt>
      <trkpt lat="48.08933" lon="7.64136">
        <ele>220</ele>
        <time>2010-01-01T01:26:04Z</time>
      </trkpt>
      <trkpt lat="48.08927" lon="7.64107">
        <ele>220</ele>
        <time>2010-01-01T01:26:12Z</time>
      </trkpt>
      <trkpt lat="48.08922" lon="7.64071">
        <ele>220</ele>
        <time>2010-01-01T01:26:22Z</time>
      </trkpt>
      <trkpt lat="48.08924" lon="7.64054">
        <ele>219</ele>
        <time>2010-01-01T01:26:27Z</time>
      </trkpt>
      <trkpt lat="48.08948" lon="7.6401">
        <ele>217</ele>
        <time>2010-01-01T01:26:42Z</time>
      </trkpt>
      <trkpt lat="48.08952" lon="7.63983">
        <ele>216</ele>
        <time>2010-01-01T01:26:49Z</time>
      </trkpt>
      <trkpt lat="48.09024" lon="7.64033">
        <ele>218</ele>
        <time>2010-01-01T01:27:21Z</time>
      </trkpt>
      <trkpt lat="48.09032" lon="7.64029">
        <ele>219</ele>
        <time>2010-01-01T01:27:25Z</time>
      </trkpt>
      <trkpt lat="48.09069" lon="7.63994">
        <ele>226</ele>
        <time>2010-01-01T01:27:42Z</time>
      </trkpt>
      <trkpt lat="48.09076" lon="7.63995">
        <ele>227</ele>
        <time>2010-01-01T01:27:45Z</time>
      </trkpt>
      <trkpt lat="48.09078" lon="7.64002">
        <ele>227</ele>
        <time>2010-01-01T01:27:47Z</time>
      </trkpt>
      <trkpt lat="48.09091" lon="7.64026">
        <ele>228</ele>
        <time>2010-01-01T01:27:55Z</time>
      </trkpt>
    </trkseg>
  </trk>
</gpx>